createdAt,value
2023-05-13T00:02:08.452Z,57.58
2023-05-13T00:07:01.771Z,59.02
2023-05-13T00:11:55.016Z,60.30
2023-05-13T00:16:49.691Z,61.41
2023-05-13T00:21:42.934Z,62.37
2023-05-13T00:26:36.223Z,64.58
2023-05-13T00:31:29.549Z,64.87
2023-05-13T00:36:24.309Z,66.01
2023-05-13T00:41:19.691Z,68.11
2023-05-13T00:46:13.060Z,68.71
2023-05-13T00:51:08.472Z,68.40
2023-05-13T00:56:03.178Z,68.77
2023-05-13T01:01:14.923Z,69.95
2023-05-13T01:06:13.830Z,71.56
2023-05-13T01:11:12.319Z,73.85
2023-05-13T01:16:12.014Z,73.40
2023-05-13T01:21:07.410Z,72.89
2023-05-13T01:26:02.037Z,72.42
2023-05-13T01:30:58.612Z,72.55
2023-05-13T01:35:54.258Z,73.33
2023-05-13T01:40:49.007Z,75.93
2023-05-13T01:45:44.108Z,77.13
2023-05-13T01:50:38.979Z,76.79
2023-05-13T01:55:33.047Z,76.05
2023-05-13T02:00:28.519Z,76.48
2023-05-13T02:05:24.430Z,77.14
2023-05-13T02:10:18.046Z,76.03
2023-05-13T02:15:12.121Z,76.13
2023-05-13T02:20:06.213Z,76.67
2023-05-13T02:25:00.846Z,78.58
2023-05-13T02:29:54.113Z,77.45
2023-05-13T02:34:47.464Z,77.45
2023-05-13T02:39:40.620Z,77.63
2023-05-13T02:44:35.649Z,75.91
2023-05-13T02:49:29.038Z,67.86
2023-05-13T02:54:22.315Z,62.26
2023-05-13T02:59:15.631Z,59.74
2023-05-13T03:04:10.273Z,61.80
2023-05-13T03:09:03.442Z,64.97
2023-05-13T03:13:56.590Z,67.89
2023-05-13T03:18:49.898Z,71.18
2023-05-13T03:23:46.119Z,74.15
2023-05-13T03:28:39.343Z,76.36
2023-05-13T03:33:32.980Z,77.83
2023-05-13T03:38:26.499Z,78.03
2023-05-13T03:43:25.004Z,78.45
2023-05-13T03:48:23.501Z,79.17
2023-05-13T03:53:17.498Z,78.65
2023-05-13T03:58:15.557Z,77.84
2023-05-13T04:03:11.095Z,76.98
2023-05-13T04:08:05.201Z,77.30
2023-05-13T04:12:58.800Z,76.71
2023-05-13T04:17:54.033Z,75.68
2023-05-13T04:22:49.990Z,74.41
2023-05-13T04:27:43.324Z,74.89
2023-05-13T04:32:45.376Z,74.22
2023-05-13T04:37:39.671Z,73.86
2023-05-13T04:42:37.451Z,73.68
2023-05-13T04:47:31.035Z,73.68
2023-05-13T04:52:25.813Z,74.08
2023-05-13T04:57:19.176Z,72.99
2023-05-13T05:02:14.535Z,73.31
2023-05-13T05:07:08.121Z,72.75
2023-05-13T05:12:01.441Z,72.57
2023-05-13T05:16:58.026Z,71.49
2023-05-13T05:21:53.116Z,73.73
2023-05-13T05:26:46.622Z,70.70
2023-05-13T05:31:41.766Z,66.99
2023-05-13T05:36:38.074Z,59.97
2023-05-13T05:41:33.850Z,55.52
2023-05-13T05:46:27.988Z,56.13
2023-05-13T05:51:21.748Z,56.42
2023-05-13T05:56:15.487Z,55.32
2023-05-13T06:01:12.455Z,55.39
2023-05-13T06:06:06.261Z,53.57
2023-05-13T06:11:00.696Z,53.21
2023-05-13T06:15:54.156Z,52.03
2023-05-13T06:20:48.818Z,50.94
2023-05-13T06:25:44.284Z,47.95
2023-05-13T06:30:38.786Z,46.31
2023-05-13T06:35:32.820Z,48.60
2023-05-13T06:40:31.020Z,47.66
2023-05-13T06:45:26.027Z,44.93
2023-05-13T06:50:20.352Z,42.05
2023-05-13T06:55:14.373Z,39.17
2023-05-13T07:00:09.989Z,35.20
2023-05-13T07:05:03.815Z,36.44
2023-05-13T07:09:57.114Z,33.64
2023-05-13T07:14:50.491Z,33.15
2023-05-13T07:19:45.751Z,32.43
2023-05-13T07:24:39.050Z,32.03
2023-05-13T07:29:32.903Z,32.70
2023-05-13T07:34:27.212Z,34.96
2023-05-13T07:39:22.070Z,32.98
2023-05-13T07:44:15.957Z,33.20
2023-05-13T07:49:09.294Z,32.74
2023-05-13T07:54:02.549Z,32.61
2023-05-13T07:58:57.376Z,32.95
2023-05-13T08:03:50.991Z,33.48
2023-05-13T08:08:44.513Z,32.05
2023-05-13T08:13:38.668Z,32.68
2023-05-13T08:18:33.412Z,33.19
2023-05-13T08:23:40.468Z,32.30
2023-05-13T08:28:36.822Z,33.38
2023-05-13T08:33:30.657Z,33.49
2023-05-13T08:38:25.524Z,32.37
2023-05-13T08:43:20.639Z,33.63
2023-05-13T08:48:16.929Z,33.37
2023-05-13T08:53:13.402Z,33.90
2023-05-13T08:58:11.092Z,33.68
2023-05-13T09:03:04.604Z,33.95
2023-05-13T09:07:58.583Z,34.05
2023-05-13T09:12:54.076Z,33.70
2023-05-13T09:17:54.541Z,33.46
2023-05-13T09:22:48.729Z,32.23
2023-05-13T09:27:44.669Z,31.65
2023-05-13T09:32:41.212Z,31.91
2023-05-13T09:37:36.522Z,31.11
2023-05-13T09:42:30.105Z,32.89
2023-05-13T09:47:25.812Z,32.00
2023-05-13T09:52:25.062Z,32.13
2023-05-13T09:57:19.877Z,30.34
2023-05-13T10:02:16.754Z,30.89
2023-05-13T10:07:23.760Z,31.27
2023-05-13T10:23:36.084Z,30.61
2023-05-13T10:28:31.039Z,31.85
2023-05-13T10:33:24.822Z,30.41
2023-05-13T10:38:24.920Z,31.43
2023-05-13T10:48:40.300Z,31.16
2023-05-13T10:53:37.318Z,31.16
2023-05-13T10:58:31.465Z,30.29
2023-05-13T11:03:32.243Z,29.69
2023-05-13T11:08:39.407Z,29.58
2023-05-13T11:13:39.035Z,30.70
2023-05-13T11:18:40.438Z,30.95
2023-05-13T11:23:35.948Z,31.30
2023-05-13T11:28:56.938Z,34.79
2023-05-13T11:34:14.581Z,34.29
2023-05-13T11:39:11.344Z,32.16
2023-05-13T11:44:06.809Z,33.47
2023-05-13T11:49:01.943Z,33.00
2023-05-13T11:54:03.086Z,32.04
2023-05-13T11:58:56.920Z,33.22
2023-05-13T12:04:03.160Z,32.66
2023-05-13T12:08:56.821Z,32.74
2023-05-13T12:13:52.912Z,31.52
2023-05-13T12:18:57.791Z,31.53
2023-05-13T12:23:51.094Z,30.85
2023-05-13T12:28:44.397Z,32.04
2023-05-13T12:33:46.955Z,31.50
2023-05-13T12:38:40.177Z,31.07
2023-05-13T12:43:37.240Z,28.40
2023-05-13T12:48:30.452Z,27.11
2023-05-13T12:53:25.122Z,24.83
2023-05-13T12:58:18.411Z,23.65
2023-05-13T13:03:13.035Z,23.66
2023-05-13T13:08:06.830Z,22.92
2023-05-13T13:13:01.584Z,24.05
2023-05-13T13:17:54.754Z,22.62
2023-05-13T13:22:49.715Z,22.23
2023-05-13T13:27:44.156Z,21.44
2023-05-13T13:32:39.269Z,21.69
2023-05-13T13:37:32.557Z,21.70
2023-05-13T13:42:40.280Z,21.82
2023-05-13T13:47:36.416Z,21.70
2023-05-13T13:52:31.190Z,21.31
2023-05-13T13:57:24.673Z,22.56
2023-05-13T14:02:18.746Z,20.27
2023-05-13T14:07:12.352Z,20.85
2023-05-13T14:12:08.133Z,21.21
2023-05-13T14:17:01.444Z,21.01
2023-05-13T14:21:54.655Z,20.89
2023-05-13T14:26:48.051Z,21.60
2023-05-13T14:31:49.426Z,21.71
2023-05-13T14:36:42.761Z,23.99
2023-05-13T14:41:36.082Z,25.85
2023-05-13T14:46:29.519Z,27.26
2023-05-13T14:51:24.194Z,29.41
2023-05-13T14:56:17.597Z,30.24
2023-05-13T15:01:10.912Z,30.64
2023-05-13T15:06:04.757Z,31.04
2023-05-13T15:11:01.079Z,31.06
2023-05-13T15:15:57.248Z,31.16
2023-05-13T15:20:52.960Z,31.96
2023-05-13T15:25:48.462Z,31.98
2023-05-13T15:30:43.323Z,32.07
2023-05-13T15:35:36.889Z,32.75
2023-05-13T15:40:33.208Z,32.43
2023-05-13T15:45:26.535Z,32.80
2023-05-13T15:50:21.459Z,32.81
2023-05-13T15:55:20.637Z,33.27
2023-05-13T16:00:16.754Z,33.68
2023-05-13T16:05:12.288Z,33.65
2023-05-13T16:10:11.069Z,34.18
2023-05-13T16:15:05.026Z,33.77
2023-05-13T16:19:59.959Z,34.10
2023-05-13T16:24:53.826Z,34.00
2023-05-13T16:29:48.739Z,34.52
2023-05-13T16:34:45.038Z,34.52
2023-05-13T16:39:39.741Z,34.78
2023-05-13T16:44:33.132Z,35.40
2023-05-13T16:49:27.882Z,35.79
2023-05-13T16:54:21.365Z,35.18
2023-05-13T16:59:23.196Z,36.15
2023-05-13T17:04:18.823Z,36.57
2023-05-13T17:09:16.390Z,37.32
2023-05-13T17:14:09.628Z,37.57
2023-05-13T17:19:03.075Z,37.54
2023-05-13T17:23:56.183Z,38.29
2023-05-13T17:28:52.384Z,38.60
2023-05-13T17:33:45.701Z,39.02
2023-05-13T17:38:39.489Z,39.74
2023-05-13T17:43:32.718Z,40.68
2023-05-13T17:48:29.533Z,40.91
2023-05-13T17:53:23.327Z,41.82
2023-05-13T17:58:16.694Z,41.99
2023-05-13T18:03:09.988Z,42.57
2023-05-13T18:08:04.689Z,42.90
2023-05-13T18:12:57.967Z,43.43
2023-05-13T18:17:51.543Z,43.71
2023-05-13T18:22:44.669Z,44.29
2023-05-13T18:27:39.461Z,44.36
2023-05-13T18:32:32.607Z,44.71
2023-05-13T18:37:27.749Z,45.11
2023-05-13T18:42:21.076Z,45.26
2023-05-13T18:47:15.625Z,45.54
2023-05-13T18:52:08.979Z,46.11
2023-05-13T18:57:02.307Z,46.47
2023-05-13T19:01:55.791Z,46.69
2023-05-13T19:06:53.184Z,47.29
2023-05-13T19:11:46.415Z,47.74
2023-05-13T19:16:39.746Z,47.93
2023-05-13T19:21:33.797Z,48.40
2023-05-13T19:26:31.224Z,48.58
2023-05-13T19:31:27.037Z,48.83
2023-05-13T19:36:23.881Z,49.37
2023-05-13T19:41:17.280Z,49.59
2023-05-13T19:46:12.606Z,49.65
2023-05-13T19:51:05.868Z,50.18
2023-05-13T19:56:10.533Z,50.33
2023-05-13T20:01:03.902Z,50.77
2023-05-13T20:05:58.605Z,50.86
2023-05-13T20:10:52.333Z,51.59
2023-05-13T20:15:48.658Z,51.95
2023-05-13T20:20:42.674Z,52.34
2023-05-13T20:25:38.499Z,52.76
2023-05-13T20:30:32.185Z,53.30
2023-05-13T20:35:29.355Z,53.21
2023-05-13T20:40:25.496Z,53.77
2023-05-13T20:45:20.744Z,54.15
2023-05-13T20:50:16.992Z,54.39
2023-05-13T20:55:11.245Z,55.11
2023-05-13T21:00:05.199Z,55.57
2023-05-13T21:04:59.956Z,55.67
2023-05-13T21:09:53.375Z,56.17
2023-05-13T21:14:46.666Z,56.49
2023-05-13T21:19:39.896Z,56.54
2023-05-13T21:24:34.389Z,56.69
2023-05-13T21:29:30.194Z,56.81
2023-05-13T21:34:23.294Z,57.14
2023-05-13T21:39:16.474Z,57.61
2023-05-13T21:44:11.290Z,58.14
2023-05-13T21:49:04.634Z,58.61
2023-05-13T21:53:57.896Z,59.25
2023-05-13T21:58:53.030Z,60.40
2023-05-13T22:03:47.608Z,62.77
2023-05-13T22:08:43.297Z,63.45
2023-05-13T22:13:36.535Z,64.30
2023-05-13T22:18:29.791Z,65.09
2023-05-13T22:23:31.086Z,65.53
2023-05-13T22:28:25.087Z,66.02
2023-05-13T22:33:22.158Z,66.53
2023-05-13T22:38:17.461Z,67.25
2023-05-13T22:43:12.007Z,67.52
2023-05-13T22:48:05.560Z,67.67
2023-05-13T22:52:58.842Z,68.90
2023-05-13T22:57:51.967Z,70.55
2023-05-13T23:02:48.556Z,71.06
2023-05-13T23:07:41.813Z,70.80
2023-05-13T23:12:35.049Z,69.68
2023-05-13T23:17:28.302Z,69.67
2023-05-13T23:22:22.957Z,71.16
2023-05-13T23:27:16.136Z,71.79
2023-05-13T23:32:09.663Z,71.37
2023-05-13T23:37:03.025Z,71.87
2023-05-13T23:41:57.652Z,71.47
2023-05-13T23:46:51.310Z,72.03
2023-05-13T23:51:44.624Z,72.60
2023-05-13T23:56:37.883Z,73.34
